ADDS METAR Data INFO
IDs: Format: Raw Decoded Include TAF

Data at: 0938 UTC 25 Jun 2018

KGNT 250935Z AUTO 32006KT 10SM CLR 13/M10 A3018 RMK AO2 T01271099
KGNT 250915Z AUTO 33008KT 10SM CLR 13/M10 A3018 RMK AO2 T01311099
KGNT 250855Z AUTO 27004KT 10SM CLR 16/M09 A3017 RMK AO2 T01551093
KGNT 250835Z AUTO 00000KT 10SM CLR 18/M09 A3017 RMK AO2 T01841091
KGNT 250815Z AUTO 00000KT 10SM CLR 17/M10 A3017 RMK AO2 T01731100
KGNT 250755Z AUTO 00000KT 10SM CLR 18/M10 A3017 RMK AO2 T01791101
KGNT 250735Z AUTO 00000KT 10SM CLR 14/M11 A3016 RMK AO2 T01391109
KGNT 250715Z AUTO 00000KT 10SM CLR 16/M11 A3015 RMK AO2 T01621109
KGNT 250655Z AUTO 00000KT 10SM CLR 17/M11 A3015 RMK AO2 T01731106 403260140
KGNT 250635Z AUTO 00000KT 10SM CLR 14/M10 A3015 RMK AO2 T01411102
KGNT 250615Z AUTO 00000KT 10SM CLR 18/M10 A3015 RMK AO2 T01771101
KGNT 250555Z AUTO 00000KT 10SM CLR 19/M10 A3015 RMK AO2 T01861096 10317 20162
KGNT 250535Z AUTO 31003KT 10SM CLR 18/M10 A3015 RMK AO2 T01791096
KGNT 250515Z AUTO 30006KT 10SM CLR 18/M10 A3015 RMK AO2 T01751100
KGNT 250455Z AUTO 32005KT 10SM CLR 17/M10 A3015 RMK AO2 T01711097
KGNT 250435Z AUTO 35004KT 10SM CLR 21/M09 A3015 RMK AO2 T02111086
KGNT 250415Z AUTO 33004KT 10SM CLR 20/M08 A3015 RMK AO2 T01981082
KGNT 250355Z AUTO 35005KT 10SM CLR 22/M08 A3014 RMK AO2 T02151077
KGNT 250335Z AUTO 34007KT 10SM CLR 23/M07 A3012 RMK AO2 T02341072
KGNT 250315Z AUTO 34010KT 10SM CLR 25/M07 A3011 RMK AO2 T02501067
KGNT 250255Z AUTO 29008KT 10SM CLR 27/M08 A3009 RMK AO2 T02661081
KGNT 250235Z AUTO 31008KT 10SM CLR 27/M08 A3009 RMK AO2 T02731082
KGNT 250215Z AUTO 30010G18KT 10SM CLR 28/M08 A3008 RMK AO2 T02831080
KGNT 250155Z AUTO 31012G20KT 10SM CLR 29/M08 A3008 RMK AO2 T02921084
KGNT 250135Z AUTO 31014G23KT 10SM CLR 30/M08 A3007 RMK AO2 T03001081
KGNT 250115Z AUTO 32018G23KT 10SM CLR 31/M08 A3007 RMK AO2 T03061079
KGNT 250055Z AUTO 31014G26KT 10SM CLR 31/M08 A3006 RMK AO2 T03101080
KGNT 250035Z AUTO 27010G19KT 10SM CLR 31/M06 A3006 RMK AO2 T03101061
KGNT 250015Z AUTO 27009G17KT 10SM CLR 32/M06 A3006 RMK AO2 T03151057
KGNT 242355Z AUTO 28019G26KT 10SM CLR 32/M05 A3006 RMK AO2 T03171052 10326 20298
KGNT 242335Z AUTO 28010G20KT 10SM CLR 32/M05 A3007 RMK AO2 T03171054
KGNT 242315Z AUTO 27012G23KT 240V300 10SM CLR 32/M06 A3007 RMK AO2 T03161056
KGNT 242255Z AUTO 31017G22KT 10SM CLR 32/M06 A3007 RMK AO2 T03211060
KGNT 242235Z AUTO 28016G22KT 10SM CLR 32/M06 A3007 RMK AO2 T03231058
KGNT 242215Z AUTO 27015G21KT 10SM CLR 32/M05 A3007 RMK AO2 T03241055
KGNT 242155Z AUTO 30014G26KT 270V340 10SM CLR 32/M05 A3007 RMK AO2 T03231050
KGNT 242135Z AUTO 27010G21KT 10SM CLR 32/M06 A3008 RMK AO2 T03221059
KGNT 242115Z AUTO 28016G21KT 10SM CLR 32/M05 A3009 RMK AO2 T03241055
KGNT 242055Z AUTO 29016G23KT 210V330 10SM CLR 31/M05 A3008 RMK AO2 T03131055
KGNT 242035Z AUTO 28010G18KT 220V300 10SM CLR 32/M05 A3009 RMK AO2 T03181054
KGNT 242015Z AUTO 28010G23KT 10SM CLR 32/M06 A3009 RMK AO2 LTG DSNT N T03171057
KGNT 241955Z AUTO 27014G19KT 230V300 10SM CLR 32/M06 A3010 RMK AO2 T03211058
KGNT 241935Z AUTO 31016G24KT 10SM CLR 31/M05 A3010 RMK AO2 T03131054
KGNT 241915Z AUTO 29013G18KT 270V330 10SM CLR 31/M05 A3011 RMK AO2 T03141054
KGNT 241855Z AUTO 28009G23KT 10SM CLR 32/M04 A3011 RMK AO2 T03161045
KGNT 241835Z AUTO 27008G22KT 10SM CLR 31/M04 A3012 RMK AO2 T03061043
KGNT 241815Z AUTO 33011G20KT 10SM CLR 30/M03 A3012 RMK AO2 T03031034
KGNT 241755Z AUTO 35012G18KT 10SM CLR 30/M03 A3012 RMK AO2 T03001033 10300 20171
KGNT 241735Z AUTO 33015G19KT 10SM CLR 30/M03 A3013 RMK AO2 T02961033
KGNT 241715Z AUTO 33008G19KT 10SM CLR 29/M04 A3013 RMK AO2 T02891040
KGNT 241655Z AUTO 33008G15KT 10SM CLR 29/M04 A3014 RMK AO2 T02861041
KGNT 241635Z AUTO 30012G19KT 10SM CLR 28/M04 A3013 RMK AO2 T02781040
KGNT 241615Z AUTO 31017G21KT 10SM CLR 28/M04 A3013 RMK AO2 T02831038
KGNT 241555Z AUTO 32014G19KT 10SM CLR 28/M03 A3013 RMK AO2 T02751026
KGNT 241535Z AUTO 30013KT 10SM CLR 27/M02 A3014 RMK AO2 T02661017
KGNT 241515Z AUTO 31006KT 10SM CLR 25/00 A3014 RMK AO2 T02520000
KGNT 241455Z AUTO 31009G14KT 10SM CLR 25/00 A3014 RMK AO2 T02520003
KGNT 241435Z AUTO 32007KT 10SM CLR 24/01 A3014 RMK AO2 T02420010
KGNT 241415Z AUTO 32006KT 10SM CLR 23/01 A3014 RMK AO2 T02280011
KGNT 241355Z AUTO 31008KT 10SM CLR 22/01 A3014 RMK AO2 T02200010
KGNT 241335Z AUTO 34008KT 10SM CLR 22/01 A3014 RMK AO2 T02160014
KGNT 241315Z AUTO 09004KT 10SM CLR 20/01 A3013 RMK AO2 T01990007
KGNT 241255Z AUTO 00000KT 10SM CLR 19/01 A3012 RMK AO2 T01870006
KGNT 241235Z AUTO 00000KT 10SM CLR 18/01 A3012 RMK AO2 T01840005
KGNT 241215Z AUTO 09005KT 10SM CLR 18/00 A3011 RMK AO2 T01770001
KGNT 241155Z AUTO 00000KT 10SM CLR 18/00 A3011 RMK AO2 T01810000 10245 20163
KGNT 241135Z AUTO 12003KT 10SM CLR 18/00 A3010 RMK AO2 T01820003
KGNT 241115Z AUTO 13007KT 10SM CLR 19/00 A3010 RMK AO2 T01920002
KGNT 241055Z AUTO 15003KT 10SM CLR 17/00 A3009 RMK AO2 T01701002
KGNT 241035Z AUTO 00000KT 10SM CLR 21/00 A3009 RMK AO2 T02090003
KGNT 241015Z AUTO 00000KT 10SM CLR 18/00 A3009 RMK AO2 T01811003
KGNT 240955Z AUTO 00000KT 10SM CLR 21/00 A3009 RMK AO2 T02060000
KGNT 240935Z AUTO 26004G08KT 10SM CLR 22/00 A3008 RMK AO2 T02150000
KGNT 240915Z AUTO 25010G23KT 10SM CLR 22/00 A3006 RMK AO2 T02200000
KGNT 240855Z AUTO 26018G28KT 10SM CLR 22/00 A3005 RMK AO2 T02201001
KGNT 240835Z AUTO 27018G29KT 10SM CLR 22/00 A3004 RMK AO2 T02231005
KGNT 240815Z AUTO 26021G27KT 10SM CLR 23/M01 A3005 RMK AO2 T02251010
KGNT 240755Z AUTO 27020G25KT 10SM CLR 23/M02 A3006 RMK AO2 T02251021
KGNT 240735Z AUTO 27018G27KT 10SM CLR 23/M03 A3006 RMK AO2 T02301031
KGNT 240715Z AUTO 27020G26KT 10SM CLR 23/M04 A3006 RMK AO2 T02331045
KGNT 240655Z AUTO 27021G27KT 10SM CLR 24/M05 A3006 RMK AO2 T02371050 403400072
KGNT 240635Z AUTO 27020G29KT 10SM CLR 24/M05 A3006 RMK AO2 T02401055
KGNT 240615Z AUTO 27020G27KT 10SM CLR 24/M05 A3006 RMK AO2 T02421055
KGNT 240555Z AUTO 27018G23KT 10SM CLR 25/M06 A3006 RMK AO2 T02451060 10330 20236
KGNT 240535Z AUTO 27015G26KT 10SM CLR 25/M06 A3006 RMK AO2 T02501062
KGNT 240515Z AUTO 26016G27KT 10SM CLR 25/M06 A3006 RMK AO2 T02511065
KGNT 240455Z AUTO 26014G18KT 10SM CLR 25/M07 A3006 RMK AO2 T02501075
KGNT 240435Z AUTO 26013G16KT 10SM CLR 25/M09 A3006 RMK AO2 T02491094
KGNT 240415Z AUTO 26011G16KT 10SM CLR 25/M11 A3006 RMK AO2 T02451109
KGNT 240335Z AUTO 25008KT 10SM CLR 24/M13 A3004 RMK AO2 T02401132
KGNT 240315Z AUTO 25007KT 10SM CLR 24/M13 A3003 RMK AO2 T02411133
KGNT 240255Z AUTO 26006KT 10SM CLR 25/M14 A3003 RMK AO2 T02511136
KGNT 240235Z AUTO 26004KT 10SM CLR 27/M14 A3003 RMK AO2 T02741137
KGNT 240215Z AUTO 27011G17KT 10SM CLR 29/M14 A3003 RMK AO2 T02941137
KGNT 240155Z AUTO 28010KT 10SM CLR 30/M14 A3003 RMK AO2 T03011141
KGNT 240135Z AUTO 28011G18KT 10SM CLR 31/M14 A3002 RMK AO2 T03081143
KGNT 240115Z AUTO 28014G18KT 10SM CLR 32/M14 A3001 RMK AO2 T03151144
KGNT 240055Z AUTO 27013G22KT 10SM CLR 32/M14 A3001 RMK AO2 T03201138
KGNT 240035Z AUTO 30013G19KT 10SM CLR 32/M14 A3001 RMK AO2 T03241140
KGNT 240015Z AUTO 27016G23KT 10SM CLR 33/M14 A3001 RMK AO2 T03251141
KGNT 232355Z AUTO 27015G21KT 10SM CLR 33/M14 A3001 RMK AO2 T03291137 10340 20299
KGNT 232335Z AUTO 32005G24KT 10SM CLR 33/M14 A3001 RMK AO2 T03291136
KGNT 232315Z AUTO 26010G23KT 10SM CLR 33/M13 A3002 RMK AO2 T03321128
KGNT 232255Z AUTO 25014G24KT 10SM CLR 33/M13 A3002 RMK AO2 T03331133
KGNT 232235Z AUTO 31012G18KT 10SM CLR 34/M12 A3003 RMK AO2 T03391119
KGNT 232215Z AUTO 25009G29KT 10SM CLR 34/M11 A3003 RMK AO2 T03371114
KGNT 232155Z AUTO 30015G19KT 260V320 10SM CLR 34/M11 A3003 RMK AO2 T03381113